createdAt,value
2018-01-05T00:01:47.541Z,987.87
2018-01-05T00:02:27.806Z,987.88
2018-01-05T00:03:08.233Z,987.87
2018-01-05T00:03:48.719Z,987.79
2018-01-05T00:04:29.459Z,987.77
2018-01-05T00:05:10.119Z,987.84
2018-01-05T00:05:50.734Z,987.85
2018-01-05T00:06:31.279Z,987.76
2018-01-05T00:07:12.178Z,987.73
2018-01-05T00:07:52.841Z,987.79
2018-01-05T00:08:33.611Z,987.7
2018-01-05T00:09:14.185Z,987.66
2018-01-05T00:09:55.573Z,987.73
2018-01-05T00:10:36.203Z,987.88
2018-01-05T00:11:16.660Z,987.66
2018-01-05T00:11:57.036Z,987.93
2018-01-05T00:12:37.502Z,987.78
2018-01-05T00:13:18.016Z,987.8
2018-01-05T00:13:58.536Z,987.82
2018-01-05T00:14:39.095Z,987.81
2018-01-05T00:15:19.769Z,987.78
2018-01-05T00:16:00.856Z,987.79
2018-01-05T00:16:41.285Z,987.81
2018-01-05T00:17:21.877Z,987.8
2018-01-05T00:18:03.145Z,987.77
2018-01-05T00:18:43.603Z,987.63
2018-01-05T00:19:24.253Z,987.68
2018-01-05T00:20:04.654Z,987.56
2018-01-05T00:20:45.145Z,987.68
2018-01-05T00:21:25.826Z,987.62
2018-01-05T00:22:07.639Z,987.77
2018-01-05T00:22:48.609Z,987.81
2018-01-05T00:23:29.272Z,987.81
2018-01-05T00:24:09.844Z,987.69
2018-01-05T00:24:50.416Z,987.73
2018-01-05T00:25:31.811Z,987.68
2018-01-05T00:26:11.766Z,987.71
2018-01-05T00:26:52.510Z,987.75
2018-01-05T00:27:32.966Z,987.68
2018-01-05T00:28:13.355Z,987.74
2018-01-05T00:28:53.818Z,987.7
2018-01-05T00:29:34.812Z,987.71
2018-01-05T00:30:15.400Z,987.64
2018-01-05T00:30:56.032Z,987.64
2018-01-05T00:31:36.632Z,987.6
2018-01-05T00:32:17.103Z,987.65
2018-01-05T00:32:58.381Z,987.73
2018-01-05T00:33:39.016Z,987.75
2018-01-05T00:34:20.066Z,987.69
2018-01-05T00:35:01.189Z,987.62
2018-01-05T00:35:41.743Z,987.75
2018-01-05T00:36:22.074Z,987.67
2018-01-05T00:38:23.952Z,987.61
2018-01-05T00:40:59.299Z,987.7
2018-01-05T00:41:39.680Z,987.72
2018-01-05T00:42:20.206Z,987.43
2018-01-05T00:43:00.770Z,987.75
2018-01-05T00:43:41.484Z,987.77
2018-01-05T00:44:21.836Z,987.77
2018-01-05T00:45:02.513Z,987.71
2018-01-05T00:45:42.884Z,987.73
2018-01-05T00:46:23.496Z,987.8
2018-01-05T00:47:04.233Z,987.8
2018-01-05T00:47:44.676Z,987.77
2018-01-05T00:48:25.111Z,987.73
2018-01-05T00:49:05.952Z,987.79
2018-01-05T00:49:47.023Z,987.82
2018-01-05T00:50:27.824Z,987.87
2018-01-05T00:51:07.770Z,987.82
2018-01-05T00:51:48.255Z,987.88
2018-01-05T00:52:28.890Z,987.76
2018-01-05T00:53:09.613Z,987.85
2018-01-05T00:56:08.679Z,987.84
2018-01-05T00:56:49.077Z,987.81
2018-01-05T00:57:29.480Z,987.85
2018-01-05T00:58:09.941Z,987.96
2018-01-05T00:58:50.467Z,987.84
2018-01-05T01:01:19.266Z,987.88
2018-01-05T01:02:04.589Z,987.83
2018-01-05T01:02:46.253Z,987.91
2018-01-05T01:03:26.935Z,987.7
2018-01-05T01:04:07.332Z,987.78
2018-01-05T01:04:48.691Z,987.81
2018-01-05T01:05:29.467Z,987.82
2018-01-05T01:06:09.879Z,987.76
2018-01-05T01:06:51.113Z,987.73
2018-01-05T01:07:30.872Z,987.64
2018-01-05T01:08:11.302Z,987.74
2018-01-05T01:08:51.900Z,987.69
2018-01-05T01:09:32.780Z,987.64
2018-01-05T01:10:13.181Z,987.72
2018-01-05T01:10:54.015Z,987.67
2018-01-05T01:11:34.338Z,987.65
2018-01-05T01:12:14.904Z,987.64
2018-01-05T01:12:55.860Z,987.71
2018-01-05T01:13:36.476Z,987.69
2018-01-05T01:14:16.763Z,987.67
2018-01-05T01:14:57.354Z,987.7
2018-01-05T01:15:37.709Z,987.73
2018-01-05T01:16:19.104Z,987.73
2018-01-05T01:16:59.186Z,987.66
2018-01-05T01:17:40.079Z,987.67
2018-01-05T01:18:20.390Z,987.67
2018-01-05T01:19:00.927Z,987.73
2018-01-05T01:19:41.189Z,987.78
2018-01-05T01:20:22.389Z,987.75
2018-01-05T01:21:02.897Z,987.85
2018-01-05T01:21:43.517Z,987.69
2018-01-05T01:28:16.828Z,987.83
2018-01-05T01:28:54.711Z,987.81
2018-01-05T01:29:35.311Z,987.81
2018-01-05T01:30:16.624Z,987.82
2018-01-05T01:30:57.201Z,987.83
2018-01-05T01:31:37.488Z,987.75
2018-01-05T01:32:18.720Z,987.58
2018-01-05T01:32:58.704Z,987.84
2018-01-05T01:33:39.145Z,987.88
2018-01-05T01:34:19.934Z,987.8
2018-01-05T01:35:00.554Z,987.8
2018-01-05T01:35:41.085Z,987.79
2018-01-05T01:36:21.458Z,987.85
2018-01-05T01:37:02.149Z,987.79
2018-01-05T01:37:42.624Z,987.8
2018-01-05T01:38:23.470Z,987.73
2018-01-05T01:39:03.941Z,987.75
2018-01-05T01:39:44.458Z,987.6
2018-01-05T01:40:24.836Z,987.65
2018-01-05T01:41:05.384Z,987.56
2018-01-05T01:41:45.942Z,987.64
2018-01-05T01:42:26.657Z,987.61
2018-01-05T01:43:08.308Z,987.64
2018-01-05T01:43:48.715Z,987.61
2018-01-05T01:44:29.465Z,987.56
2018-01-05T01:45:10.005Z,987.6
2018-01-05T01:45:50.415Z,987.56
2018-01-05T01:46:32.114Z,987.59
2018-01-05T01:47:12.109Z,987.51
2018-01-05T01:47:52.994Z,987.51
2018-01-05T01:48:33.309Z,987.53
2018-01-05T01:49:13.717Z,987.55
2018-01-05T01:49:54.155Z,987.54
2018-01-05T01:50:34.882Z,987.57
2018-01-05T01:51:15.323Z,987.48
2018-01-05T01:51:55.731Z,987.51
2018-01-05T01:52:36.138Z,987.47
2018-01-05T01:53:17.062Z,987.31
2018-01-05T01:53:57.197Z,987.49
2018-01-05T01:54:38.053Z,987.38
2018-01-05T01:55:18.568Z,987.47
2018-01-05T01:55:58.831Z,987.46
2018-01-05T01:56:39.216Z,987.39
2018-01-05T01:57:19.871Z,987.49
2018-01-05T01:58:00.217Z,987.45
2018-01-05T01:58:41.478Z,987.51
2018-01-05T01:59:22.202Z,987.52
2018-01-05T02:00:02.616Z,987.47
2018-01-05T02:03:11.964Z,987.37
2018-01-05T02:03:51.828Z,987.24
2018-01-05T02:04:32.223Z,987.23
2018-01-05T02:05:12.760Z,987.22
2018-01-05T02:05:54.643Z,987.18
2018-01-05T02:06:36.177Z,987.21
2018-01-05T02:07:17.849Z,987
2018-01-05T02:07:58.655Z,987.16
2018-01-05T02:08:39.000Z,987.23
2018-01-05T02:09:19.446Z,987.19
2018-01-05T02:09:59.831Z,987.19
2018-01-05T02:10:40.415Z,987.08
2018-01-05T02:11:20.845Z,987.08
2018-01-05T02:12:01.271Z,987.09
2018-01-05T02:12:42.122Z,987.17
2018-01-05T02:13:22.611Z,987.08
2018-01-05T02:14:03.188Z,987.16
2018-01-05T02:14:43.707Z,987.16
2018-01-05T02:15:24.976Z,987.13
2018-01-05T02:16:05.607Z,987.14
2018-01-05T02:16:46.231Z,987.19
2018-01-05T02:17:27.164Z,987.15
2018-01-05T02:20:24.748Z,987.24
2018-01-05T02:21:05.027Z,987.24
2018-01-05T02:21:45.524Z,987.17
2018-01-05T02:22:26.104Z,987.15
2018-01-05T02:23:06.955Z,987.2
2018-01-05T02:23:47.356Z,987.13
2018-01-05T02:24:27.784Z,987.07
2018-01-05T02:25:08.235Z,987.06
2018-01-05T02:25:48.641Z,987.12
2018-01-05T02:26:28.997Z,987.13
2018-01-05T02:27:09.889Z,987.1
2018-01-05T02:27:50.412Z,987.1
2018-01-05T02:28:30.727Z,987.08
2018-01-05T02:29:11.096Z,987.04
2018-01-05T02:29:51.466Z,986.95
2018-01-05T02:30:31.876Z,987.04
2018-01-05T02:31:12.278Z,986.98
2018-01-05T02:31:52.641Z,987.04
2018-01-05T02:32:33.602Z,987.07
2018-01-05T02:33:13.953Z,987.13
2018-01-05T02:33:54.329Z,987.14
2018-01-05T02:34:35.140Z,987.09
2018-01-05T02:35:15.531Z,987.06
2018-01-05T02:35:56.227Z,987.03
2018-01-05T02:36:36.618Z,987.06
2018-01-05T02:37:17.139Z,987.09
2018-01-05T02:37:57.577Z,987.08
2018-01-05T02:38:38.485Z,987.09
2018-01-05T02:39:18.626Z,987.1
2018-01-05T02:39:59.049Z,987.12
2018-01-05T02:40:40.054Z,987.01
2018-01-05T02:41:20.480Z,986.98
2018-01-05T02:42:01.143Z,987.02
2018-01-05T02:42:41.679Z,987.06
2018-01-05T02:43:21.864Z,987.07
2018-01-05T02:45:23.707Z,987.03
2018-01-05T02:46:03.878Z,987.04
2018-01-05T02:48:21.245Z,986.92
2018-01-05T02:49:01.877Z,986.9
2018-01-05T02:49:42.229Z,986.94
2018-01-05T02:50:22.682Z,986.91
2018-01-05T02:51:03.169Z,986.77
2018-01-05T02:51:43.593Z,986.93
2018-01-05T02:52:24.113Z,986.88
2018-01-05T02:53:04.547Z,987
2018-01-05T02:53:46.073Z,987
2018-01-05T02:54:26.140Z,986.97
2018-01-05T02:55:06.523Z,986.98
2018-01-05T02:55:47.171Z,986.93
2018-01-05T02:56:27.590Z,986.89
2018-01-05T02:57:08.043Z,986.88
2018-01-05T02:57:48.768Z,986.83
2018-01-05T02:58:29.414Z,986.78
2018-01-05T02:59:10.739Z,986.78
2018-01-05T02:59:51.441Z,986.8
2018-01-05T03:00:32.136Z,986.74
2018-01-05T03:01:12.676Z,986.77
2018-01-05T03:01:53.158Z,986.74
2018-01-05T03:02:33.676Z,986.75
2018-01-05T03:03:14.161Z,986.77
2018-01-05T03:03:54.874Z,986.72
2018-01-05T03:04:35.460Z,986.65
2018-01-05T03:05:15.763Z,986.43
2018-01-05T03:05:56.822Z,986.73
2018-01-05T03:06:37.047Z,986.71
2018-01-05T03:07:17.407Z,986.75
2018-01-05T03:07:57.821Z,986.67
2018-01-05T03:08:38.280Z,986.76
2018-01-05T03:09:18.628Z,986.78
2018-01-05T03:09:59.194Z,986.7
2018-01-05T03:10:39.739Z,986.65
2018-01-05T03:11:20.377Z,986.52
2018-01-05T03:12:00.560Z,986.65
2018-01-05T03:12:40.945Z,986.58
2018-01-05T03:13:23.079Z,986.58
2018-01-05T03:14:03.260Z,986.51
2018-01-05T03:14:43.941Z,986.5
2018-01-05T03:15:24.364Z,986.56
2018-01-05T03:16:04.736Z,986.57
2018-01-05T03:16:45.506Z,986.67
2018-01-05T03:17:26.261Z,986.59
2018-01-05T03:18:07.890Z,986.58
2018-01-05T03:18:48.339Z,986.56
2018-01-05T03:19:29.447Z,986.59
2018-01-05T03:20:09.976Z,986.63
2018-01-05T03:20:50.352Z,986.61
2018-01-05T03:21:30.767Z,986.62
2018-01-05T03:22:11.152Z,986.63
2018-01-05T03:22:51.523Z,986.63
2018-01-05T03:23:31.939Z,986.63
2018-01-05T03:24:12.460Z,986.58
2018-01-05T03:24:52.956Z,986.56
2018-01-05T03:25:33.325Z,986.62
2018-01-05T03:26:13.679Z,986.58
2018-01-05T03:26:54.096Z,986.57
2018-01-05T03:27:34.537Z,986.59
2018-01-05T03:28:15.171Z,986.55
2018-01-05T03:28:55.500Z,986.56
2018-01-05T03:29:35.887Z,986.5
2018-01-05T03:30:16.325Z,986.48
2018-01-05T03:30:56.769Z,986.45
2018-01-05T03:31:37.111Z,986.49
2018-01-05T03:32:17.796Z,986.48
2018-01-05T03:32:58.206Z,986.47
2018-01-05T03:33:38.590Z,986.46
2018-01-05T03:34:18.978Z,986.47
2018-01-05T03:34:59.362Z,986.5
2018-01-05T03:35:39.746Z,986.43
2018-01-05T03:36:20.133Z,986.43
2018-01-05T03:37:00.579Z,986.44
2018-01-05T03:37:40.962Z,986.32
2018-01-05T03:38:21.352Z,986.32
2018-01-05T03:39:01.763Z,986.32
2018-01-05T03:39:42.150Z,986.32
2018-01-05T03:42:10.836Z,986.2
2018-01-05T03:42:51.892Z,986.21
2018-01-05T03:45:15.298Z,986.25
2018-01-05T03:46:06.876Z,986.22
2018-01-05T03:46:53.967Z,986.22
2018-01-05T03:47:31.264Z,986.25
2018-01-05T03:48:11.672Z,986.27
2018-01-05T03:48:52.172Z,986.34
2018-01-05T03:49:32.480Z,986.25
2018-01-05T03:50:12.872Z,986.18
2018-01-05T03:50:53.262Z,986.19
2018-01-05T03:51:33.654Z,986.21
2018-01-05T03:52:14.064Z,986.16
2018-01-05T03:52:54.476Z,986.24
2018-01-05T03:53:34.855Z,986.21
2018-01-05T03:54:15.292Z,986.21
2018-01-05T03:54:55.652Z,986.22
2018-01-05T03:55:36.265Z,986.16
2018-01-05T03:56:16.448Z,986.16
2018-01-05T03:56:56.890Z,986.21
2018-01-05T03:57:37.223Z,986.18
2018-01-05T03:58:17.696Z,986.24
2018-01-05T03:58:58.084Z,986.23
2018-01-05T03:59:38.449Z,986.2
2018-01-05T04:00:18.787Z,986.23
2018-01-05T04:00:59.190Z,986.19
2018-01-05T04:01:39.566Z,986.17
2018-01-05T04:41:41.066Z,985.82
2018-01-05T04:44:21.169Z,985.92
2018-01-05T04:45:01.867Z,985.87
2018-01-05T04:45:45.005Z,985.8
2018-01-05T04:46:25.997Z,985.96
2018-01-05T04:47:07.236Z,985.82
2018-01-05T04:47:48.660Z,985.82
2018-01-05T04:48:29.175Z,985.72
2018-01-05T04:49:09.624Z,985.87
2018-01-05T04:49:51.221Z,985.72
2018-01-05T04:50:31.646Z,985.82
2018-01-05T04:51:12.008Z,985.72
2018-01-05T04:51:54.138Z,985.78
2018-01-05T04:52:34.398Z,985.51
2018-01-05T04:53:15.023Z,985.62
2018-01-05T04:53:55.467Z,985.81
2018-01-05T04:54:35.861Z,985.54
2018-01-05T04:55:16.302Z,985.91
2018-01-05T04:55:56.861Z,985.76
2018-01-05T04:56:37.300Z,985.59
2018-01-05T04:57:17.810Z,985.74
2018-01-05T04:57:58.312Z,985.79
2018-01-05T05:00:41.009Z,985.8
2018-01-05T05:01:18.556Z,985.9
2018-01-05T05:01:59.617Z,986.27
2018-01-05T05:02:40.198Z,985.66
2018-01-05T05:03:20.849Z,985.72
2018-01-05T05:04:01.575Z,985.64
2018-01-05T05:04:41.828Z,985.67
2018-01-05T05:05:22.563Z,985.71
2018-01-05T05:06:03.381Z,985.67
2018-01-05T05:06:43.990Z,985.68
2018-01-05T05:07:25.137Z,985.8
2018-01-05T05:08:06.802Z,985.85
2018-01-05T05:08:47.493Z,985.92
2018-01-05T05:09:28.174Z,985.75
2018-01-05T05:10:08.457Z,985.89
2018-01-05T05:10:48.867Z,985.86
2018-01-05T05:11:29.395Z,986.04
2018-01-05T05:12:10.744Z,985.86
2018-01-05T05:12:51.264Z,985.85
2018-01-05T05:13:31.991Z,985.65
2018-01-05T05:14:12.897Z,985.73
2018-01-05T05:14:53.437Z,985.97
2018-01-05T05:15:34.184Z,986
2018-01-05T05:16:14.550Z,985.81
2018-01-05T05:16:55.010Z,986.17
2018-01-05T05:19:20.291Z,986.11
2018-01-05T05:20:01.938Z,986.05
2018-01-05T05:20:42.439Z,986.1
2018-01-05T05:21:22.780Z,986.03
2018-01-05T05:22:03.249Z,986
2018-01-05T05:22:44.055Z,986.11
2018-01-05T05:23:24.360Z,986.13
2018-01-05T05:24:06.254Z,986.04
2018-01-05T05:28:16.835Z,986.22
2018-01-05T05:28:57.008Z,986.19
2018-01-05T05:29:37.711Z,986.26
2018-01-05T05:30:18.165Z,986.22
2018-01-05T05:30:58.562Z,986.07
2018-01-05T05:31:38.935Z,986.12
2018-01-05T05:32:19.308Z,986.09
2018-01-05T05:33:00.023Z,986.13
2018-01-05T05:33:40.380Z,986.15
2018-01-05T05:36:12.081Z,986.26
2018-01-05T05:36:51.446Z,986
2018-01-05T05:37:32.001Z,986.17
2018-01-05T05:38:12.348Z,986.05
2018-01-05T05:38:52.866Z,986.24
2018-01-05T05:39:33.987Z,986.18
2018-01-05T05:40:14.572Z,986.02
2018-01-05T05:40:55.271Z,986.03
2018-01-05T05:41:35.716Z,986.22
2018-01-05T05:42:16.007Z,986.37
2018-01-05T05:42:56.397Z,986.2
2018-01-05T05:43:36.989Z,986.2
2018-01-05T05:44:17.294Z,986.03
2018-01-05T05:44:57.826Z,986.18
2018-01-05T05:45:38.347Z,986.22
2018-01-05T05:46:18.687Z,986.16
2018-01-05T05:48:19.350Z,986.22
2018-01-05T05:48:59.916Z,986.24
2018-01-05T05:49:40.348Z,986.26
2018-01-05T05:50:20.814Z,986.3
2018-01-05T05:51:01.227Z,986.26
2018-01-05T05:51:41.862Z,986.16
2018-01-05T05:52:22.487Z,986.21
2018-01-05T05:53:02.917Z,986.25
2018-01-05T05:53:43.341Z,986.26
2018-01-05T05:54:24.048Z,986.31
2018-01-05T05:55:04.788Z,986.22
2018-01-05T05:55:45.391Z,986.32
2018-01-05T05:56:26.003Z,986.35
2018-01-05T05:57:06.726Z,986.41
2018-01-05T05:57:47.427Z,986.13
2018-01-05T05:58:28.073Z,986.14
2018-01-05T05:59:08.810Z,986.34
2018-01-05T05:59:50.785Z,986.37
2018-01-05T06:00:31.896Z,986.36
2018-01-05T06:01:12.365Z,986.38
2018-01-05T06:01:54.482Z,986.37
2018-01-05T06:02:34.899Z,986.41
2018-01-05T06:03:15.663Z,986.34
2018-01-05T06:03:56.391Z,986.37
2018-01-05T06:04:36.804Z,986.39
2018-01-05T06:05:17.462Z,986.3
2018-01-05T06:05:58.170Z,986.22
2018-01-05T06:06:38.808Z,986.29
2018-01-05T06:07:19.629Z,986.34
2018-01-05T06:08:00.180Z,986.22
2018-01-05T06:08:40.760Z,986.35
2018-01-05T06:09:21.488Z,986.16
2018-01-05T06:10:02.150Z,986.38
2018-01-05T06:10:42.848Z,986.07
2018-01-05T06:11:23.313Z,986.46
2018-01-05T06:12:03.753Z,986.35
2018-01-05T06:12:44.539Z,986.5
2018-01-05T06:13:25.173Z,986.42
2018-01-05T06:14:05.615Z,986.33
2018-01-05T06:14:46.581Z,986.8
2018-01-05T06:15:27.105Z,986.59
2018-01-05T06:16:07.801Z,986.39
2018-01-05T06:16:48.246Z,986.44
2018-01-05T06:17:28.617Z,986.39
2018-01-05T06:18:09.499Z,986.64
2018-01-05T06:18:49.911Z,986.47
2018-01-05T06:19:30.802Z,986.46
2018-01-05T06:20:11.034Z,986.49
2018-01-05T06:20:51.694Z,986.56
2018-01-05T06:21:32.521Z,986.55
2018-01-05T06:22:14.204Z,986.64
2018-01-05T06:22:55.178Z,986.67
2018-01-05T06:23:35.718Z,986.62
2018-01-05T06:24:16.725Z,986.72
2018-01-05T06:24:57.521Z,986.73
2018-01-05T06:25:38.111Z,986.78
2018-01-05T06:26:18.581Z,986.71
2018-01-05T06:29:02.882Z,986.69
2018-01-05T06:29:43.490Z,986.74
2018-01-05T06:30:23.870Z,986.73
2018-01-05T06:31:04.584Z,986.69
2018-01-05T06:31:45.051Z,986.46
2018-01-05T06:32:26.581Z,986.68
2018-01-05T06:33:07.217Z,986.51
2018-01-05T06:33:47.875Z,986.78
2018-01-05T06:34:28.147Z,986.76
2018-01-05T06:35:08.732Z,986.88
2018-01-05T06:35:49.520Z,986.91
2018-01-05T06:36:30.017Z,986.54
2018-01-05T06:37:10.659Z,986.5
2018-01-05T06:37:51.375Z,986.59
2018-01-05T06:38:35.056Z,986.83
2018-01-05T06:39:15.370Z,986.91
2018-01-05T06:39:55.732Z,986.82
2018-01-05T06:40:36.291Z,986.9
2018-01-05T06:41:16.649Z,986.81
2018-01-05T06:41:57.221Z,986.85
2018-01-05T06:42:37.587Z,986.78
2018-01-05T06:43:18.244Z,986.86
2018-01-05T06:43:58.662Z,986.87
2018-01-05T06:44:39.076Z,986.84
2018-01-05T06:45:19.764Z,986.92
2018-01-05T06:46:00.947Z,986.85
2018-01-05T06:46:41.051Z,986.87
2018-01-05T06:47:21.911Z,986.87
2018-01-05T06:48:02.386Z,986.7
2018-01-05T06:48:43.514Z,986.75
2018-01-05T06:49:23.778Z,986.84
2018-01-05T06:50:04.390Z,986.7
2018-01-05T06:50:44.926Z,986.82
2018-01-05T06:51:25.684Z,986.86
2018-01-05T06:52:06.231Z,986.93
2018-01-05T06:52:46.956Z,986.92
2018-01-05T06:53:27.400Z,986.95
2018-01-05T06:54:08.083Z,986.92
2018-01-05T06:54:48.606Z,986.91
2018-01-05T06:55:29.005Z,986.96
2018-01-05T06:56:09.402Z,986.98
2018-01-05T06:56:50.768Z,987
2018-01-05T06:57:31.112Z,987
2018-01-05T06:58:11.892Z,986.99
2018-01-05T06:58:52.318Z,986.99
2018-01-05T06:59:32.829Z,986.97
2018-01-05T07:00:13.283Z,986.92
2018-01-05T07:00:53.749Z,987.01
2018-01-05T07:01:34.123Z,986.94
2018-01-05T07:02:14.547Z,986.92
2018-01-05T07:02:54.899Z,986.95
2018-01-05T07:03:35.547Z,986.94
2018-01-05T07:04:16.040Z,986.98
2018-01-05T07:04:56.763Z,986.97
2018-01-05T07:05:37.444Z,986.73
2018-01-05T07:06:17.967Z,986.9
2018-01-05T07:06:58.381Z,986.91
2018-01-05T07:07:38.877Z,986.9
2018-01-05T07:08:19.242Z,986.95
2018-01-05T07:09:00.526Z,986.9
2018-01-05T07:11:01.099Z,986.94
2018-01-05T07:11:41.540Z,986.78
2018-01-05T07:12:21.865Z,986.97
2018-01-05T07:14:37.712Z,986.94
2018-01-05T07:15:17.428Z,986.82
2018-01-05T07:15:57.775Z,986.93
2018-01-05T07:16:38.627Z,986.94
2018-01-05T07:17:19.077Z,986.94
2018-01-05T07:17:59.413Z,986.93
2018-01-05T07:18:39.776Z,986.81
2018-01-05T07:19:20.181Z,986.92
2018-01-05T07:20:00.684Z,987.05
2018-01-05T07:20:41.318Z,986.91
2018-01-05T07:21:21.700Z,987.04
2018-01-05T07:22:02.643Z,987.1
2018-01-05T07:22:43.197Z,987.15
2018-01-05T07:23:23.765Z,987.14
2018-01-05T07:24:04.437Z,987.16
2018-01-05T07:24:44.843Z,987.08
2018-01-05T07:25:25.899Z,987.24
2018-01-05T07:26:10.077Z,987.18
2018-01-05T07:26:50.721Z,987.22
2018-01-05T07:27:31.156Z,987.14
2018-01-05T07:28:14.850Z,987.17
2018-01-05T07:28:55.334Z,987.27
2018-01-05T07:29:35.866Z,987.28
2018-01-05T07:30:16.904Z,987.19
2018-01-05T07:30:58.511Z,987.22
2018-01-05T07:31:38.870Z,987.24
2018-01-05T07:32:19.325Z,987.26
2018-01-05T07:32:59.721Z,987.26
2018-01-05T07:33:40.924Z,987.29
2018-01-05T07:34:21.420Z,987.37
2018-01-05T07:35:01.990Z,987.32
2018-01-05T07:35:42.479Z,987.38
2018-01-05T07:36:23.118Z,987.43
2018-01-05T07:37:03.382Z,987.42
2018-01-05T07:37:43.836Z,987.44
2018-01-05T07:38:25.105Z,987.43
2018-01-05T07:39:05.445Z,987.41
2018-01-05T07:39:46.022Z,987.38
2018-01-05T07:40:26.835Z,987.39
2018-01-05T07:41:07.171Z,987.36
2018-01-05T07:41:47.616Z,987.41
2018-01-05T07:42:28.422Z,987.34
2018-01-05T07:43:08.873Z,987.36
2018-01-05T07:43:49.265Z,987.41
2018-01-05T07:44:29.819Z,987.32
2018-01-05T07:45:10.233Z,987.29
2018-01-05T07:45:50.620Z,987.33
2018-01-05T07:46:31.061Z,987.35
2018-01-05T07:47:11.492Z,987.34
2018-01-05T07:47:51.923Z,987.29
2018-01-05T07:48:32.508Z,987.36
2018-01-05T07:49:12.944Z,987.36
2018-01-05T07:49:53.380Z,987.39
2018-01-05T07:50:34.561Z,987.37
2018-01-05T07:51:14.409Z,987.35
2018-01-05T07:51:54.851Z,987.43
2018-01-05T07:52:35.352Z,987.48
2018-01-05T07:53:15.726Z,987.45
2018-01-05T07:53:56.143Z,987.49
2018-01-05T07:54:36.561Z,987.49
2018-01-05T07:55:17.090Z,987.53
2018-01-05T07:55:59.822Z,987.56
2018-01-05T07:56:40.217Z,987.6
2018-01-05T07:57:20.607Z,987.68
2018-01-05T07:58:01.045Z,987.71
2018-01-05T07:58:41.960Z,987.7
2018-01-05T07:59:22.386Z,987.74
2018-01-05T08:00:03.504Z,987.68
2018-01-05T08:00:44.390Z,987.72
2018-01-05T08:01:25.186Z,987.72
2018-01-05T08:02:07.088Z,987.76
2018-01-05T08:02:49.836Z,987.77
2018-01-05T08:03:30.776Z,987.83
2018-01-05T08:04:16.189Z,987.9
2018-01-05T08:04:56.515Z,987.96
2018-01-05T08:05:38.434Z,988.04
2018-01-05T08:06:19.704Z,987.96
2018-01-05T08:07:03.385Z,988.05
2018-01-05T08:07:46.169Z,987.98
2018-01-05T08:08:27.228Z,987.9
2018-01-05T08:09:08.440Z,987.88
2018-01-05T08:09:50.036Z,987.85
2018-01-05T08:10:30.913Z,987.81
2018-01-05T08:11:13.561Z,987.85
2018-01-05T08:11:55.172Z,987.83
2018-01-05T08:12:35.761Z,988
2018-01-05T08:13:17.295Z,987.93
2018-01-05T08:13:58.674Z,987.97
2018-01-05T08:24:35.768Z,988.07
2018-01-05T08:33:15.627Z,988.24
2018-01-05T08:35:08.765Z,988.26
2018-01-05T08:35:53.031Z,988.33
2018-01-05T08:36:35.225Z,988.37
2018-01-05T08:42:28.687Z,988.45
2018-01-05T08:47:34.995Z,988.42
2018-01-05T08:50:40.873Z,988.41
2018-01-05T08:51:37.454Z,988.33
2018-01-05T08:52:48.350Z,988.32
2018-01-05T09:01:45.104Z,988.39
2018-01-05T09:02:42.938Z,988.36
2018-01-05T09:19:24.050Z,988.41
2018-01-05T09:38:16.443Z,988.33
2018-01-05T09:39:07.303Z,988.38
2018-01-05T09:41:18.202Z,988.34
2018-01-05T09:46:22.295Z,988.4
2018-01-05T09:47:03.736Z,988.38
2018-01-05T09:47:46.082Z,988.43
2018-01-05T09:53:09.298Z,988.48
2018-01-05T09:55:08.099Z,988.51
2018-01-05T09:56:58.771Z,988.53
2018-01-05T09:57:41.854Z,988.52
2018-01-05T09:58:29.136Z,988.46
2018-01-05T09:59:13.859Z,988.54
2018-01-05T09:59:54.810Z,988.5
2018-01-05T10:00:36.797Z,988.51
2018-01-05T10:01:18.843Z,988.5
2018-01-05T10:02:01.056Z,988.52
2018-01-05T10:02:43.973Z,988.54
2018-01-05T10:54:42.931Z,988.61
2018-01-05T10:58:32.390Z,988.6
2018-01-05T11:03:51.296Z,988.5
2018-01-05T11:04:35.281Z,988.54
2018-01-05T11:05:16.938Z,988.53
2018-01-05T11:08:44.057Z,988.6
2018-01-05T11:11:07.432Z,988.54
2018-01-05T11:11:49.755Z,988.57
2018-01-05T11:12:30.688Z,988.55
2018-01-05T11:13:11.486Z,988.59
2018-01-05T11:13:56.274Z,988.61
2018-01-05T11:14:37.105Z,988.63
2018-01-05T11:15:19.135Z,988.56
2018-01-05T11:16:01.810Z,988.65
2018-01-05T11:16:41.908Z,988.62
2018-01-05T11:17:26.598Z,988.63
2018-01-05T11:18:09.294Z,988.59
2018-01-05T11:18:50.642Z,988.57
2018-01-05T11:19:31.617Z,988.59
2018-01-05T11:20:19.296Z,988.58
2018-01-05T11:21:00.093Z,988.59
2018-01-05T11:21:45.844Z,988.65
2018-01-05T11:22:35.638Z,988.63
2018-01-05T11:23:14.807Z,988.6
2018-01-05T11:23:56.804Z,988.61
2018-01-05T11:24:45.207Z,988.58
2018-01-05T11:25:27.351Z,988.66
2018-01-05T11:36:16.125Z,988.53
2018-01-05T11:36:58.111Z,988.62
2018-01-05T11:37:49.602Z,988.6
2018-01-05T11:42:10.141Z,988.63
2018-01-05T11:44:36.936Z,988.52
2018-01-05T11:47:00.149Z,988.52
2018-01-05T11:47:44.302Z,988.59
2018-01-05T11:49:41.258Z,988.61
2018-01-05T11:50:30.836Z,988.68
2018-01-05T11:51:07.951Z,988.67
2018-01-05T11:51:49.364Z,988.69
2018-01-05T11:52:30.027Z,988.63
2018-01-05T11:53:11.954Z,988.62
2018-01-05T11:53:54.259Z,988.59
2018-01-05T11:54:36.033Z,988.64
2018-01-05T11:55:18.861Z,988.6
2018-01-05T11:56:01.895Z,988.63
2018-01-05T11:56:43.003Z,988.6
2018-01-05T11:57:28.218Z,988.62
2018-01-05T11:58:14.951Z,988.58
2018-01-05T11:59:03.404Z,988.58
2018-01-05T11:59:52.738Z,988.55
2018-01-05T12:01:24.063Z,988.51
2018-01-05T12:02:16.916Z,988.47
2018-01-05T12:02:58.707Z,988.48
2018-01-05T12:03:40.274Z,988.45
2018-01-05T12:04:27.112Z,988.43
2018-01-05T12:05:15.774Z,988.42
2018-01-05T12:06:02.472Z,988.42
2018-01-05T12:06:53.203Z,988.42
2018-01-05T12:11:19.706Z,988.45
2018-01-05T12:12:11.064Z,988.48
2018-01-05T12:12:51.522Z,988.44
2018-01-05T12:13:31.965Z,988.41
2018-01-05T12:14:12.488Z,988.4
2018-01-05T12:14:52.910Z,988.37
2018-01-05T12:15:33.259Z,988.35
2018-01-05T12:16:14.157Z,988.27
2018-01-05T12:16:54.332Z,988.31
2018-01-05T12:17:41.348Z,988.27
2018-01-05T12:18:20.968Z,988.21
2018-01-05T12:19:02.054Z,988.2
2018-01-05T12:19:45.427Z,988.2
2018-01-05T12:20:25.026Z,988.23
2018-01-05T12:25:58.974Z,988.11
2018-01-05T12:26:52.970Z,988.01
2018-01-05T12:27:34.152Z,988.08
2018-01-05T12:28:18.681Z,988.08
2018-01-05T12:29:02.377Z,988.14
2018-01-05T12:29:42.752Z,988.13
2018-01-05T12:30:23.143Z,988.17
2018-01-05T12:31:05.730Z,987.97
2018-01-05T12:31:48.913Z,988.22
2018-01-05T12:32:33.412Z,988.24
2018-01-05T12:33:18.640Z,988.22
2018-01-05T12:33:56.588Z,988.24
2018-01-05T12:34:42.232Z,988.29
2018-01-05T12:35:26.555Z,988.31
2018-01-05T12:36:10.136Z,988.29
2018-01-05T12:36:51.234Z,988.28
2018-01-05T12:37:34.779Z,988.27
2018-01-05T12:38:15.260Z,988.25
2018-01-05T12:41:03.608Z,988.21
2018-01-05T12:41:45.232Z,988.25
2018-01-05T12:42:31.413Z,988.29
2018-01-05T12:43:11.830Z,988.25
2018-01-05T12:43:52.357Z,988.25
2018-01-05T12:44:33.077Z,988.23
2018-01-05T12:45:13.311Z,988.21
2018-01-05T12:45:53.761Z,988.2
2018-01-05T12:46:34.239Z,988.21
2018-01-05T12:47:14.555Z,988.21
2018-01-05T12:47:54.990Z,988.24
2018-01-05T12:48:41.148Z,988.2
2018-01-05T12:50:22.708Z,988.27
2018-01-05T12:54:09.926Z,988.14
2018-01-05T12:54:47.028Z,988.17
2018-01-05T12:55:27.383Z,988.22
2018-01-05T12:56:07.779Z,988.16
2018-01-05T12:56:48.164Z,988.19
2018-01-05T12:57:31.135Z,988.22
2018-01-05T12:58:17.540Z,988.21
2018-01-05T12:59:05.201Z,988.2
2018-01-05T13:01:28.862Z,988.27
2018-01-05T13:02:08.571Z,988.24
2018-01-05T13:02:49.260Z,988.21
2018-01-05T13:03:29.509Z,988.24
2018-01-05T13:04:09.943Z,988.23